createdAt,value
2023-04-18T00:00:10.677Z,12.55
2023-04-18T00:02:44.039Z,12.50
2023-04-18T00:05:13.381Z,13.68
2023-04-18T00:07:41.630Z,12.07
2023-04-18T00:10:11.858Z,12.57
2023-04-18T00:12:40.445Z,7.93
2023-04-18T00:15:09.906Z,12.73
2023-04-18T00:17:39.747Z,10.13
2023-04-18T00:20:10.702Z,14.27
2023-04-18T00:22:42.521Z,15.60
2023-04-18T00:25:12.658Z,16.00
2023-04-18T00:27:40.889Z,17.13
2023-04-18T00:30:10.826Z,14.68
2023-04-18T00:32:39.817Z,14.50
2023-04-18T00:35:08.856Z,14.85
2023-04-18T00:37:37.586Z,17.10
2023-04-18T00:40:07.057Z,16.25
2023-04-18T00:42:36.711Z,14.00
2023-04-18T00:45:05.566Z,13.45
2023-04-18T00:47:36.203Z,13.77
2023-04-18T00:50:04.856Z,12.75
2023-04-18T00:52:34.837Z,12.68
2023-04-18T00:55:03.920Z,12.98
2023-04-18T00:57:32.837Z,12.80
2023-04-18T01:00:04.485Z,13.07
2023-04-18T01:02:35.834Z,13.43
2023-04-18T01:05:06.164Z,15.32
2023-04-18T01:07:35.931Z,14.95
2023-04-18T01:10:04.924Z,15.35
2023-04-18T01:12:33.532Z,11.57
2023-04-18T01:15:04.151Z,14.38
2023-04-18T01:17:35.616Z,12.27
2023-04-18T01:20:06.262Z,14.25
2023-04-18T01:22:35.110Z,13.60
2023-04-18T01:25:10.146Z,12.90
2023-04-18T01:27:38.418Z,9.18
2023-04-18T01:30:08.153Z,11.48
2023-04-18T01:32:36.573Z,10.15
2023-04-18T01:35:05.378Z,13.88
2023-04-18T01:37:36.211Z,14.63
2023-04-18T01:40:04.899Z,12.57
2023-04-18T01:42:34.605Z,12.73
2023-04-18T01:45:03.001Z,11.50
2023-04-18T01:47:31.986Z,11.95
2023-04-18T01:50:00.263Z,12.38
2023-04-18T01:52:31.550Z,11.15
2023-04-18T01:55:02.160Z,12.15
2023-04-18T01:57:32.178Z,12.18
2023-04-18T02:00:01.898Z,11.60
2023-04-18T02:02:32.754Z,11.85
2023-04-18T02:05:01.039Z,11.52
2023-04-18T02:07:29.625Z,11.85
2023-04-18T02:09:58.448Z,13.57
2023-04-18T02:12:26.885Z,19.33
2023-04-18T02:14:55.661Z,25.33
2023-04-18T02:17:25.540Z,55.90
2023-04-18T02:19:56.540Z,68.53
2023-04-18T02:22:24.946Z,39.17
2023-04-18T02:24:53.197Z,21.92
2023-04-18T02:27:21.455Z,33.78
2023-04-18T02:29:49.603Z,29.10
2023-04-18T02:32:18.007Z,28.85
2023-04-18T02:34:47.746Z,19.10
2023-04-18T02:37:18.674Z,22.60
2023-04-18T02:39:46.923Z,25.23
2023-04-18T02:42:15.729Z,23.60
2023-04-18T02:44:44.109Z,23.30
2023-04-18T02:47:12.363Z,15.52
2023-04-18T02:49:43.393Z,13.70
2023-04-18T02:52:13.051Z,11.88
2023-04-18T02:54:41.332Z,10.57
2023-04-18T02:57:14.695Z,12.30
2023-04-18T02:59:55.280Z,15.60
2023-04-18T03:02:42.152Z,16.08
2023-04-18T03:05:30.792Z,13.50
2023-04-18T03:08:03.569Z,15.23
2023-04-18T03:10:32.366Z,13.82
2023-04-18T03:13:01.165Z,12.35
2023-04-18T03:15:31.162Z,13.27
2023-04-18T03:18:00.323Z,13.63
2023-04-18T03:20:33.029Z,12.27
2023-04-18T03:23:01.368Z,13.02
2023-04-18T03:25:34.333Z,14.07
2023-04-18T03:28:03.387Z,13.57
2023-04-18T03:30:33.225Z,14.23
2023-04-18T03:33:05.306Z,14.45
2023-04-18T03:35:34.180Z,13.10
2023-04-18T03:38:02.759Z,12.77
2023-04-18T03:40:36.424Z,13.90
2023-04-18T03:43:11.062Z,11.70
2023-04-18T03:45:39.534Z,11.88
2023-04-18T03:48:08.329Z,12.05
2023-04-18T03:50:41.359Z,12.63
2023-04-18T03:53:11.746Z,11.77
2023-04-18T03:55:43.425Z,11.23
2023-04-18T03:58:14.248Z,12.00
2023-04-18T04:00:43.150Z,12.30
2023-04-18T04:03:13.262Z,11.65
2023-04-18T04:05:41.734Z,11.30
2023-04-18T04:08:10.037Z,11.55
2023-04-18T04:10:38.490Z,11.25
2023-04-18T04:13:08.088Z,7.97
2023-04-18T04:15:39.790Z,9.57
2023-04-18T04:18:11.018Z,10.88
2023-04-18T04:20:43.283Z,11.48
2023-04-18T04:23:15.642Z,11.65
2023-04-18T04:25:46.980Z,11.27
2023-04-18T04:28:28.800Z,10.93
2023-04-18T04:31:02.260Z,10.20
2023-04-18T04:33:33.332Z,10.05
2023-04-18T04:36:05.897Z,11.52
2023-04-18T04:38:38.185Z,10.75
2023-04-18T04:41:07.596Z,10.52
2023-04-18T04:43:37.994Z,10.23
2023-04-18T04:46:07.712Z,9.70
2023-04-18T04:48:36.167Z,9.50
2023-04-18T04:51:05.610Z,9.55
2023-04-18T04:53:34.086Z,10.45
2023-04-18T04:56:04.814Z,10.43
2023-04-18T04:58:35.192Z,11.18
2023-04-18T05:01:25.750Z,10.75
2023-04-18T05:03:55.913Z,10.43
2023-04-18T05:06:25.139Z,10.10
2023-04-18T05:08:53.623Z,10.48
2023-04-18T05:11:22.002Z,9.93
2023-04-18T05:13:50.313Z,10.20
2023-04-18T05:16:18.793Z,9.45
2023-04-18T05:18:48.447Z,9.02
2023-04-18T05:21:16.697Z,9.25
2023-04-18T05:23:44.965Z,9.00
2023-04-18T05:26:13.462Z,9.68
2023-04-18T05:28:41.653Z,9.13
2023-04-18T05:31:10.011Z,8.38
2023-04-18T05:33:38.308Z,8.95
2023-04-18T05:36:08.961Z,9.23
2023-04-18T05:38:37.313Z,9.90
2023-04-18T05:41:05.721Z,11.07
2023-04-18T05:43:34.639Z,11.02
2023-04-18T05:46:02.995Z,10.40
2023-04-18T05:48:31.351Z,10.27
2023-04-18T05:50:59.769Z,10.02
2023-04-18T05:53:29.450Z,10.27
2023-04-18T05:55:59.184Z,8.95
2023-04-18T05:58:28.798Z,9.98
2023-04-18T06:00:57.311Z,9.25
2023-04-18T06:03:26.004Z,9.77
2023-04-18T06:05:54.740Z,9.80
2023-04-18T06:08:23.119Z,9.82
2023-04-18T06:10:53.183Z,11.63
2023-04-18T06:13:21.578Z,9.32
2023-04-18T06:15:49.897Z,9.35
2023-04-18T06:18:18.183Z,9.18
2023-04-18T06:21:05.398Z,10.75
2023-04-18T06:23:52.316Z,10.23
2023-04-18T06:26:40.893Z,10.35
2023-04-18T06:29:09.299Z,9.93
2023-04-18T06:31:37.547Z,10.88
2023-04-18T06:34:07.429Z,9.95
2023-04-18T06:36:35.722Z,9.20
2023-04-18T06:39:04.049Z,8.05
2023-04-18T06:41:32.735Z,6.25
2023-04-18T06:44:04.624Z,8.25
2023-04-18T06:46:33.755Z,6.38
2023-04-18T06:49:02.339Z,6.53
2023-04-18T06:51:31.664Z,6.57
2023-04-18T06:53:59.938Z,7.72
2023-04-18T06:56:29.654Z,7.15
2023-04-18T06:58:57.814Z,7.32
2023-04-18T07:01:27.594Z,8.48
2023-04-18T07:03:55.919Z,7.00
2023-04-18T07:06:24.233Z,6.70
2023-04-18T07:08:54.414Z,6.78
2023-04-18T07:11:23.657Z,6.63
2023-04-18T07:13:51.934Z,5.85
2023-04-18T07:16:20.386Z,6.13
2023-04-18T07:18:49.997Z,5.70
2023-04-18T07:21:18.228Z,6.38
2023-04-18T07:23:46.475Z,6.50
2023-04-18T07:26:14.815Z,6.47
2023-04-18T07:28:43.135Z,6.55
2023-04-18T07:31:11.829Z,6.60
2023-04-18T07:33:40.256Z,6.07
2023-04-18T07:36:10.430Z,7.35
2023-04-18T07:38:38.595Z,8.38
2023-04-18T07:41:06.931Z,7.93
2023-04-18T07:43:35.192Z,7.75
2023-04-18T07:46:03.529Z,9.27
2023-04-18T07:48:31.787Z,8.05
2023-04-18T07:51:00.080Z,8.32
2023-04-18T07:53:29.668Z,8.23
2023-04-18T07:55:57.888Z,8.25
2023-04-18T07:58:26.110Z,8.48
2023-04-18T08:00:54.336Z,8.27
2023-04-18T08:03:22.747Z,8.52
2023-04-18T08:05:51.974Z,9.50
2023-04-18T08:08:20.861Z,10.00
2023-04-18T08:10:50.947Z,9.77
2023-04-18T08:13:19.182Z,9.40
2023-04-18T08:15:47.751Z,10.15
2023-04-18T08:18:16.027Z,10.65
2023-04-18T08:20:44.247Z,9.10
2023-04-18T08:23:13.347Z,10.15
2023-04-18T08:25:41.856Z,10.73
2023-04-18T08:28:11.797Z,11.35
2023-04-18T08:30:40.100Z,10.98
2023-04-18T08:33:08.387Z,11.77
2023-04-18T08:35:37.619Z,10.23
2023-04-18T08:38:05.833Z,10.38
2023-04-18T08:40:34.432Z,10.85
2023-04-18T08:43:04.927Z,12.27
2023-04-18T08:45:34.785Z,11.55
2023-04-18T08:48:04.011Z,13.70
2023-04-18T08:50:32.632Z,11.05
2023-04-18T08:53:02.001Z,11.05
2023-04-18T08:55:30.462Z,9.77
2023-04-18T08:57:59.701Z,9.18
2023-04-18T09:00:29.354Z,11.98
2023-04-18T09:02:59.261Z,10.68
2023-04-18T09:05:28.345Z,12.38
2023-04-18T09:07:57.511Z,10.73
2023-04-18T09:10:28.920Z,9.40
2023-04-18T09:12:58.560Z,9.40
2023-04-18T09:15:29.334Z,8.77
2023-04-18T09:18:02.705Z,9.50
2023-04-18T09:20:38.088Z,8.52
2023-04-18T09:23:11.026Z,8.20
2023-04-18T09:25:46.624Z,8.38
2023-04-18T09:28:27.082Z,8.48
2023-04-18T09:30:57.091Z,7.60
2023-04-18T09:33:32.622Z,8.20
2023-04-18T09:36:19.408Z,8.23
2023-04-18T09:38:48.300Z,7.80
2023-04-18T09:41:19.844Z,8.02
2023-04-18T09:43:50.709Z,8.13
2023-04-18T09:46:19.045Z,6.97
2023-04-18T09:48:49.202Z,7.03
2023-04-18T09:51:18.116Z,6.90
2023-04-18T09:53:47.785Z,6.47
2023-04-18T09:56:21.426Z,6.15
2023-04-18T09:58:57.048Z,5.50
2023-04-18T10:01:28.974Z,5.80
2023-04-18T10:04:03.433Z,4.95
2023-04-18T10:06:34.584Z,6.65
2023-04-18T10:09:05.845Z,6.90
2023-04-18T10:11:34.454Z,6.70
2023-04-18T10:14:05.751Z,7.90
2023-04-18T10:16:36.114Z,8.38
2023-04-18T10:19:27.194Z,7.97
2023-04-18T10:21:56.778Z,7.10
2023-04-18T10:24:50.409Z,7.10
2023-04-18T10:27:19.734Z,10.23
2023-04-18T10:29:50.068Z,8.82
2023-04-18T10:32:20.724Z,7.57
2023-04-18T10:34:53.449Z,6.68
2023-04-18T10:37:21.798Z,7.00
2023-04-18T10:39:57.012Z,6.85
2023-04-18T10:42:58.878Z,6.13
2023-04-18T10:45:28.622Z,5.95
2023-04-18T10:48:25.940Z,5.75
2023-04-18T10:51:16.288Z,5.68
2023-04-18T10:53:55.227Z,5.30
2023-04-18T10:56:23.742Z,5.13
2023-04-18T10:58:53.342Z,4.63
2023-04-18T11:01:31.684Z,5.85
2023-04-18T11:04:01.692Z,5.10
2023-04-18T11:06:31.784Z,6.07
2023-04-18T11:09:12.626Z,6.43
2023-04-18T11:11:41.678Z,6.95
2023-04-18T11:14:10.219Z,4.40
2023-04-18T11:16:38.925Z,5.90
2023-04-18T11:19:21.168Z,4.88
2023-04-18T11:21:51.848Z,4.60
2023-04-18T11:24:24.482Z,6.63
2023-04-18T11:26:55.936Z,5.03
2023-04-18T11:29:25.133Z,5.57
2023-04-18T11:31:56.687Z,6.07
2023-04-18T11:34:30.593Z,4.78
2023-04-18T11:37:00.906Z,4.95
2023-04-18T11:39:29.403Z,4.03
2023-04-18T11:41:58.292Z,4.10
2023-04-18T11:44:27.710Z,5.13
2023-04-18T11:46:55.939Z,3.67
2023-04-18T11:49:29.205Z,3.97
2023-04-18T11:51:57.741Z,4.43
2023-04-18T11:54:44.906Z,3.65
2023-04-18T11:57:25.443Z,4.45
2023-04-18T11:59:55.229Z,3.33
2023-04-18T12:02:25.363Z,4.25
2023-04-18T12:04:56.084Z,2.88
2023-04-18T12:07:32.398Z,3.10
2023-04-18T12:10:02.481Z,3.40
2023-04-18T12:12:32.381Z,3.20
2023-04-18T12:15:02.113Z,3.78
2023-04-18T12:17:34.434Z,2.83
2023-04-18T12:20:04.180Z,3.10
2023-04-18T12:22:46.540Z,3.90
2023-04-18T12:25:23.507Z,2.90
2023-04-18T12:27:56.367Z,3.42
2023-04-18T12:30:26.204Z,3.25
2023-04-18T12:32:57.221Z,3.30
2023-04-18T12:35:26.538Z,3.40
2023-04-18T12:37:56.551Z,5.20
2023-04-18T12:40:27.461Z,2.70
2023-04-18T12:42:56.292Z,2.78
2023-04-18T12:45:25.769Z,3.83
2023-04-18T12:47:54.429Z,3.90
2023-04-18T12:50:24.658Z,2.72
2023-04-18T12:52:53.924Z,3.80
2023-04-18T12:55:22.773Z,3.10
2023-04-18T12:57:54.850Z,2.80
2023-04-18T13:00:24.469Z,2.95
2023-04-18T13:02:53.424Z,2.80
2023-04-18T13:05:23.316Z,3.53
2023-04-18T13:07:58.570Z,2.80
2023-04-18T13:10:33.447Z,2.80
2023-04-18T13:13:03.088Z,2.72
2023-04-18T13:15:31.504Z,3.08
2023-04-18T13:18:04.530Z,3.33
2023-04-18T13:20:34.079Z,2.88
2023-04-18T13:23:03.352Z,3.10
2023-04-18T13:25:31.919Z,3.03
2023-04-18T13:28:00.951Z,3.25
2023-04-18T13:30:32.083Z,4.18
2023-04-18T13:33:00.518Z,3.65
2023-04-18T13:35:28.802Z,2.80
2023-04-18T13:37:57.185Z,3.47
2023-04-18T13:40:25.435Z,3.97
2023-04-18T13:42:53.708Z,3.08
2023-04-18T13:45:22.008Z,3.10
2023-04-18T13:47:51.836Z,3.03
2023-04-18T13:50:20.329Z,3.38
2023-04-18T13:52:49.390Z,2.80
2023-04-18T13:55:18.723Z,2.63
2023-04-18T13:57:48.383Z,2.72
2023-04-18T14:00:17.569Z,3.28
2023-04-18T14:02:45.901Z,2.72
2023-04-18T14:05:16.057Z,2.50
2023-04-18T14:07:44.322Z,2.50
2023-04-18T14:10:12.849Z,2.70
2023-04-18T14:12:41.203Z,2.92
2023-04-18T14:15:10.902Z,3.03
2023-04-18T14:17:39.442Z,2.33
2023-04-18T14:20:09.340Z,3.10
2023-04-18T14:22:39.033Z,2.40
2023-04-18T14:25:08.760Z,2.63
2023-04-18T14:27:37.581Z,2.72
2023-04-18T14:30:08.714Z,2.55
2023-04-18T14:32:37.284Z,2.90
2023-04-18T14:35:07.100Z,2.60
2023-04-18T14:37:35.491Z,2.63
2023-04-18T14:40:08.360Z,2.55
2023-04-18T14:42:39.410Z,3.17
2023-04-18T14:45:11.615Z,2.70
2023-04-18T14:47:40.243Z,3.15
2023-04-18T14:50:11.805Z,3.00
2023-04-18T14:52:41.545Z,3.25
2023-04-18T14:55:11.612Z,2.78
2023-04-18T14:57:40.505Z,2.70
2023-04-18T15:00:10.422Z,2.70
2023-04-18T15:02:38.842Z,2.72
2023-04-18T15:05:08.513Z,3.35
2023-04-18T15:07:38.019Z,4.05
2023-04-18T15:10:07.525Z,2.70
2023-04-18T15:12:37.285Z,9.00
2023-04-18T15:15:06.360Z,3.58
2023-04-18T15:17:34.715Z,4.57
2023-04-18T15:20:05.635Z,3.90
2023-04-18T15:22:34.009Z,3.63
2023-04-18T15:25:02.415Z,7.63
2023-04-18T15:27:32.153Z,3.42
2023-04-18T15:30:02.419Z,2.97
2023-04-18T15:32:34.263Z,2.88
2023-04-18T15:35:03.054Z,3.33
2023-04-18T15:37:32.924Z,2.55
2023-04-18T15:40:02.120Z,2.80
2023-04-18T15:42:31.893Z,2.72
2023-04-18T15:45:01.720Z,2.30
2023-04-18T15:47:33.874Z,2.35
2023-04-18T15:50:03.389Z,2.40
2023-04-18T15:52:33.726Z,3.30
2023-04-18T15:55:02.125Z,3.58
2023-04-18T15:57:32.992Z,3.30
2023-04-18T16:00:02.813Z,3.17
2023-04-18T16:02:33.676Z,3.13
2023-04-18T16:05:01.929Z,2.75
2023-04-18T16:07:31.847Z,3.38
2023-04-18T16:10:02.639Z,2.53
2023-04-18T16:12:32.704Z,3.00
2023-04-18T16:15:02.322Z,2.50
2023-04-18T16:17:33.807Z,3.33
2023-04-18T16:20:02.476Z,2.40
2023-04-18T16:22:31.792Z,2.80
2023-04-18T16:25:00.221Z,2.15
2023-04-18T16:27:29.054Z,3.03
2023-04-18T16:29:57.406Z,3.25
2023-04-18T16:32:27.088Z,2.65
2023-04-18T16:34:55.409Z,2.83
2023-04-18T16:37:23.701Z,2.78
2023-04-18T16:39:52.020Z,2.97
2023-04-18T16:42:20.284Z,2.90
2023-04-18T16:44:48.548Z,3.10
2023-04-18T16:47:16.797Z,2.65
2023-04-18T16:49:47.801Z,4.18
2023-04-18T16:52:16.982Z,3.25
2023-04-18T16:54:45.563Z,3.20
2023-04-18T16:57:13.999Z,2.78
2023-04-18T16:59:42.757Z,3.28
2023-04-18T17:02:12.068Z,3.63
2023-04-18T17:04:41.114Z,2.33
2023-04-18T17:07:10.997Z,4.40
2023-04-18T17:09:39.474Z,2.97
2023-04-18T17:12:08.150Z,3.08
2023-04-18T17:14:37.550Z,2.92
2023-04-18T17:17:05.943Z,4.10
2023-04-18T17:19:34.211Z,4.07
2023-04-18T17:22:03.618Z,2.92
2023-04-18T17:24:33.491Z,3.08
2023-04-18T17:27:01.814Z,3.28
2023-04-18T17:29:30.384Z,3.00
2023-04-18T17:31:58.776Z,3.97
2023-04-18T17:34:27.066Z,4.40
2023-04-18T17:36:55.609Z,5.32
2023-04-18T17:39:27.109Z,4.68
2023-04-18T17:41:57.630Z,4.25
2023-04-18T17:44:26.186Z,3.53
2023-04-18T17:46:54.650Z,4.25
2023-04-18T17:49:23.136Z,3.65
2023-04-18T17:51:52.067Z,3.40
2023-04-18T17:54:20.691Z,3.53
2023-04-18T17:56:50.487Z,3.50
2023-04-18T17:59:20.438Z,4.10
2023-04-18T18:01:49.134Z,4.10
2023-04-18T18:04:18.074Z,3.08
2023-04-18T18:06:55.881Z,4.07
2023-04-18T18:09:24.901Z,4.88
2023-04-18T18:11:55.943Z,4.22
2023-04-18T18:14:26.587Z,8.55
2023-04-18T18:16:55.218Z,5.88
2023-04-18T18:19:26.383Z,5.55
2023-04-18T18:21:56.310Z,5.20
2023-04-18T18:24:27.085Z,7.13
2023-04-18T18:26:56.508Z,4.70
2023-04-18T18:29:26.747Z,4.55
2023-04-18T18:31:55.474Z,5.95
2023-04-18T18:34:24.054Z,4.75
2023-04-18T18:36:52.762Z,4.43
2023-04-18T18:39:21.367Z,4.53
2023-04-18T18:41:50.146Z,4.55
2023-04-18T18:44:18.415Z,4.32
2023-04-18T18:46:48.409Z,4.47
2023-04-18T18:49:17.008Z,4.20
2023-04-18T18:51:45.432Z,4.57
2023-04-18T18:54:13.775Z,5.80
2023-04-18T18:56:42.908Z,7.53
2023-04-18T18:59:11.629Z,6.93
2023-04-18T19:01:40.126Z,6.28
2023-04-18T19:04:10.894Z,6.57
2023-04-18T19:06:40.243Z,6.50
2023-04-18T19:09:08.614Z,6.40
2023-04-18T19:11:37.036Z,6.57
2023-04-18T19:14:06.139Z,4.30
2023-04-18T19:16:36.078Z,3.17
2023-04-18T19:19:04.863Z,4.45
2023-04-18T19:21:36.590Z,4.30
2023-04-18T19:24:05.675Z,4.28
2023-04-18T19:26:34.319Z,4.68
2023-04-18T19:29:03.035Z,4.85
2023-04-18T19:31:32.291Z,5.45
2023-04-18T19:34:00.844Z,16.63
2023-04-18T19:36:29.582Z,13.38
2023-04-18T19:38:59.648Z,15.18
2023-04-18T19:41:27.957Z,12.90
2023-04-18T19:43:56.781Z,9.23
2023-04-18T19:46:25.460Z,9.50
2023-04-18T19:48:53.853Z,9.85
2023-04-18T19:51:22.162Z,7.68
2023-04-18T19:53:51.144Z,7.45
2023-04-18T19:56:20.917Z,8.07
2023-04-18T19:58:49.335Z,5.53
2023-04-18T20:01:19.807Z,6.22
2023-04-18T20:03:49.361Z,7.43
2023-04-18T20:06:18.966Z,5.68
2023-04-18T20:08:47.324Z,5.47
2023-04-18T20:11:15.929Z,5.00
2023-04-18T20:13:46.069Z,4.15
2023-04-18T20:16:16.606Z,3.60
2023-04-18T20:18:47.555Z,4.20
2023-04-18T20:21:16.475Z,3.85
2023-04-18T20:23:45.337Z,3.40
2023-04-18T20:26:13.754Z,4.15
2023-04-18T20:28:42.003Z,4.25
2023-04-18T20:31:12.696Z,3.80
2023-04-18T20:33:41.259Z,3.95
2023-04-18T20:36:09.792Z,4.70
2023-04-18T20:38:38.144Z,4.53
2023-04-18T20:41:10.747Z,4.55
2023-04-18T20:43:39.116Z,4.43
2023-04-18T20:46:07.619Z,4.13
2023-04-18T20:48:37.660Z,4.03
2023-04-18T20:51:06.241Z,3.53
2023-04-18T20:53:34.533Z,4.80
2023-04-18T20:56:03.521Z,5.38
2023-04-18T20:58:32.318Z,4.18
2023-04-18T21:01:00.879Z,4.88
2023-04-18T21:03:29.329Z,3.95
2023-04-18T21:05:59.329Z,4.72
2023-04-18T21:08:27.612Z,5.20
2023-04-18T21:10:55.876Z,5.43
2023-04-18T21:13:24.573Z,4.85
2023-04-18T21:15:57.087Z,4.13
2023-04-18T21:18:25.906Z,4.85
2023-04-18T21:20:54.501Z,4.47
2023-04-18T21:23:25.295Z,5.68
2023-04-18T21:25:53.648Z,4.97
2023-04-18T21:28:21.952Z,5.22
2023-04-18T21:30:50.862Z,5.55
2023-04-18T21:33:19.322Z,5.45
2023-04-18T21:35:47.663Z,5.80
2023-04-18T21:38:15.944Z,4.72
2023-04-18T21:40:45.581Z,4.57
2023-04-18T21:43:13.835Z,4.22
2023-04-18T21:45:42.155Z,4.80
2023-04-18T21:48:10.613Z,4.18
2023-04-18T21:50:38.900Z,4.28
2023-04-18T21:53:07.189Z,4.00
2023-04-18T21:55:35.639Z,4.30
2023-04-18T21:58:06.643Z,3.97
2023-04-18T22:00:34.872Z,3.35
2023-04-18T22:03:03.170Z,4.00
2023-04-18T22:05:33.344Z,4.18
2023-04-18T22:08:03.022Z,3.30
2023-04-18T22:10:31.213Z,3.55
2023-04-18T22:13:00.231Z,3.58
2023-04-18T22:15:30.137Z,3.35
2023-04-18T22:17:59.085Z,3.42
2023-04-18T22:20:27.444Z,3.58
2023-04-18T22:22:55.836Z,3.55
2023-04-18T22:25:24.068Z,3.80
2023-04-18T22:27:52.488Z,3.88
2023-04-18T22:30:20.756Z,4.00
2023-04-18T22:32:50.550Z,4.05
2023-04-18T22:35:19.026Z,4.00
2023-04-18T22:37:47.318Z,3.55
2023-04-18T22:40:16.546Z,4.15
2023-04-18T22:42:44.956Z,3.92
2023-04-18T22:45:13.731Z,4.07
2023-04-18T22:47:42.157Z,4.07
2023-04-18T22:50:12.561Z,4.10
2023-04-18T22:52:41.280Z,3.22
2023-04-18T22:55:10.394Z,4.10
2023-04-18T22:57:39.509Z,3.65
2023-04-18T23:00:10.321Z,4.30
2023-04-18T23:02:38.955Z,3.90
2023-04-18T23:05:08.050Z,4.03
2023-04-18T23:07:37.873Z,4.22
2023-04-18T23:10:07.690Z,4.50
2023-04-18T23:12:35.872Z,3.80
2023-04-18T23:15:04.232Z,3.95
2023-04-18T23:17:35.882Z,4.07
2023-04-18T23:20:06.860Z,3.60
2023-04-18T23:22:35.166Z,3.78
2023-04-18T23:25:05.162Z,3.67
2023-04-18T23:27:33.416Z,3.60
2023-04-18T23:30:01.724Z,3.40
2023-04-18T23:32:33.336Z,3.67
2023-04-18T23:35:04.254Z,3.45
2023-04-18T23:37:35.457Z,3.70
2023-04-18T23:40:06.921Z,3.75
2023-04-18T23:42:35.936Z,3.75
2023-04-18T23:45:05.901Z,3.88
2023-04-18T23:47:35.964Z,3.95
2023-04-18T23:50:04.366Z,3.47
2023-04-18T23:52:34.329Z,3.50
2023-04-18T23:55:02.865Z,3.60
2023-04-18T23:57:36.048Z,3.70
